Kelowna Airport
CYLW : now visible

Airfield :











YOU CAN JOIN US ON...

 
LOGIN :

Register | Disclaimer

   EN    FR    IT 

 









Legend :    VFR   Marginal VFR   IFR   Intensive IFR   Very Intensive IFR
Visi :
Ceiling :
>= 8 km
>= 3000ft
5 to 8 km
1000 to 3000 ft
1500m to 5 km
500 to 1000 ft
800 to 1500m
200 to 500 ft
< 800m
< 200 ft
Symbols :   Thunderstorms  Fog  Heavy snow  Heavy precipitations  Wind > 20 kt






- Airport Elevation : 1409 ft
- IATA code : YLW


CYLW - Kelowna

CURRENT METAR :
  • 121800Z AUTO VRB02KT 9SM OVC022 01/M00 A2987 RMK SLP134

EXPIRED METARs :
  • 121700Z AUTO 00000KT 9SM OVC022 M00/M01 A2985 RMK SLP129
  • 121600Z AUTO VRB02KT 9SM BKN016 OVC022 M01/M01 A2985 RMK SLP127

TAF AMD TAF CYLW
Valid from the 12 at 17:00 until the 13 at 01:00 UTC


121709Z 1217/1301 VRB03KT P6SM SCT020
TEMPO 1217/1219 BKN020
FM121900 VRB03KT P6SM FEW030 FEW060
FM122300 14005KT P6SM -SHSN SCT020 BKN060
TEMPO 1223/1301 2SM -SHSN BKN020 OVC060 RMK FCST BASED ON AUTO OBS. NXT FCST BY 121900Z



MET'MAP, your aeronautical weather chart ! - Copyright ORBIFLY December 2007 - Disclaimer

ORBIFLY MET'MAP TEAM :

Programming & Development : Alexandra Zaïnal
Concept & original design : Baudouin d'Aumeries
Assistance for programming : Marc-Olivier Méhu
Technical & hardware support : Manuel Goepfert

Contact : metmap@orbifly.com




SOURCES & CREDITS :

   NOAA       Earth
Advisory